createdAt,value
2019-05-23T00:01:04.976Z,4.37
2019-05-23T00:04:00.583Z,4.17
2019-05-23T00:06:33.856Z,4.55
2019-05-23T00:09:06.667Z,4.00
2019-05-23T00:11:42.670Z,4.10
2019-05-23T00:14:31.582Z,4.95
2019-05-23T00:17:04.537Z,3.80
2019-05-23T00:19:35.331Z,3.60
2019-05-23T00:22:07.626Z,4.62
2019-05-23T00:24:38.947Z,3.92
2019-05-23T00:27:09.905Z,3.92
2019-05-23T00:29:40.829Z,4.03
2019-05-23T00:32:20.984Z,4.40
2019-05-23T00:34:53.535Z,4.10
2019-05-23T00:37:25.594Z,4.50
2019-05-23T00:39:56.265Z,3.50
2019-05-23T00:42:28.806Z,3.65
2019-05-23T00:45:00.325Z,4.08
2019-05-23T00:47:31.759Z,3.70
2019-05-23T00:50:03.106Z,4.33
2019-05-23T00:52:34.145Z,4.00
2019-05-23T00:55:05.005Z,4.15
2019-05-23T00:57:37.684Z,3.75
2019-05-23T01:00:09.043Z,4.15
2019-05-23T01:02:39.632Z,4.00
2019-05-23T01:05:12.772Z,3.83
2019-05-23T01:07:45.449Z,3.72
2019-05-23T01:10:18.401Z,3.77
2019-05-23T01:12:50.174Z,3.92
2019-05-23T01:15:22.632Z,3.30
2019-05-23T01:17:53.915Z,3.40
2019-05-23T01:20:38.851Z,4.55
2019-05-23T01:23:09.609Z,2.85
2019-05-23T01:25:40.253Z,3.40
2019-05-23T01:28:11.325Z,3.35
2019-05-23T01:30:45.422Z,3.60
2019-05-23T01:33:18.047Z,3.08
2019-05-23T01:35:49.166Z,3.27
2019-05-23T01:38:21.292Z,3.67
2019-05-23T01:40:52.340Z,2.95
2019-05-23T01:43:23.614Z,3.05
2019-05-23T01:45:54.389Z,2.70
2019-05-23T01:48:25.319Z,2.95
2019-05-23T01:50:57.733Z,3.08
2019-05-23T01:53:29.820Z,3.40
2019-05-23T01:56:00.701Z,2.90
2019-05-23T01:58:31.841Z,3.33
2019-05-23T02:01:02.608Z,3.00
2019-05-23T02:03:33.450Z,3.42
2019-05-23T02:06:04.088Z,3.92
2019-05-23T02:08:35.349Z,3.02
2019-05-23T02:11:06.404Z,3.33
2019-05-23T02:13:37.766Z,2.95
2019-05-23T02:16:08.490Z,3.30
2019-05-23T02:18:39.636Z,3.58
2019-05-23T02:21:11.257Z,2.67
2019-05-23T02:23:42.286Z,2.85
2019-05-23T02:26:13.172Z,2.67
2019-05-23T02:28:44.346Z,2.72
2019-05-23T02:31:15.829Z,2.60
2019-05-23T02:33:46.554Z,2.75
2019-05-23T02:36:17.753Z,3.17
2019-05-23T02:39:06.393Z,2.52
2019-05-23T02:41:42.337Z,3.10
2019-05-23T02:44:19.186Z,2.58
2019-05-23T02:46:54.177Z,2.58
2019-05-23T02:49:27.707Z,2.45
2019-05-23T02:51:58.626Z,2.52
2019-05-23T02:54:30.476Z,2.50
2019-05-23T02:57:03.123Z,2.70
2019-05-23T02:59:48.213Z,3.62
2019-05-23T03:03:00.431Z,2.67
2019-05-23T03:05:32.556Z,2.98
2019-05-23T03:08:03.988Z,2.60
2019-05-23T03:11:19.320Z,2.25
2019-05-23T03:13:50.206Z,2.58
2019-05-23T03:16:23.201Z,2.62
2019-05-23T03:19:01.730Z,2.95
2019-05-23T03:21:33.829Z,2.87
2019-05-23T03:24:05.117Z,2.90
2019-05-23T03:27:03.272Z,2.65
2019-05-23T03:29:34.618Z,3.30
2019-05-23T03:32:38.718Z,3.10
2019-05-23T03:35:19.436Z,3.10
2019-05-23T03:37:51.491Z,2.83
2019-05-23T03:40:23.153Z,2.83
2019-05-23T03:42:54.850Z,3.30
2019-05-23T03:45:28.938Z,2.47
2019-05-23T03:47:59.956Z,2.70
2019-05-23T03:50:32.696Z,2.83
2019-05-23T03:53:05.377Z,2.85
2019-05-23T03:55:36.900Z,2.72
2019-05-23T03:58:09.975Z,3.08
2019-05-23T04:00:47.374Z,2.90
2019-05-23T04:03:19.226Z,2.60
2019-05-23T04:05:51.258Z,2.85
2019-05-23T04:08:23.677Z,2.42
2019-05-23T04:10:55.378Z,2.77
2019-05-23T04:13:26.975Z,3.00
2019-05-23T04:15:57.883Z,2.62
2019-05-23T04:18:28.734Z,3.15
2019-05-23T04:21:00.065Z,2.33
2019-05-23T04:23:31.122Z,2.25
2019-05-23T04:26:01.889Z,2.67
2019-05-23T04:28:32.891Z,2.50
2019-05-23T04:31:03.941Z,2.45
2019-05-23T04:33:34.964Z,2.52
2019-05-23T04:36:05.844Z,2.40
2019-05-23T04:38:36.922Z,2.20
2019-05-23T04:41:07.733Z,1.90
2019-05-23T04:43:38.647Z,4.97
2019-05-23T04:46:09.937Z,3.83
2019-05-23T04:48:40.655Z,5.78
2019-05-23T04:51:12.003Z,6.28
2019-05-23T04:53:42.603Z,7.28
2019-05-23T04:56:13.526Z,5.65
2019-05-23T04:58:44.684Z,9.75
2019-05-23T05:01:21.417Z,6.15
2019-05-23T05:03:53.335Z,7.05
2019-05-23T05:06:24.902Z,7.95
2019-05-23T05:08:58.509Z,6.90
2019-05-23T05:11:31.446Z,6.75
2019-05-23T05:14:02.850Z,5.70
2019-05-23T05:16:33.768Z,5.00
2019-05-23T05:19:04.779Z,5.37
2019-05-23T05:21:35.961Z,4.00
2019-05-23T05:24:11.069Z,4.80
2019-05-23T05:26:41.774Z,5.30
2019-05-23T05:29:12.939Z,5.87
2019-05-23T05:31:43.931Z,8.18
2019-05-23T05:34:14.959Z,6.20
2019-05-23T05:36:46.413Z,7.53
2019-05-23T05:39:17.262Z,5.40
2019-05-23T05:41:48.362Z,8.03
2019-05-23T05:44:19.649Z,9.23
2019-05-23T05:46:50.271Z,5.55
2019-05-23T05:49:21.376Z,4.12
2019-05-23T05:51:52.518Z,6.12
2019-05-23T05:54:23.569Z,5.92
2019-05-23T05:56:55.336Z,4.78
2019-05-23T05:59:26.211Z,4.92
2019-05-23T06:01:57.050Z,4.87
2019-05-23T06:04:27.766Z,4.35
2019-05-23T06:07:20.254Z,6.83
2019-05-23T06:09:51.895Z,4.58
2019-05-23T06:12:22.849Z,6.03
2019-05-23T06:14:53.560Z,4.75
2019-05-23T06:17:25.285Z,5.17
2019-05-23T06:19:56.121Z,6.37
2019-05-23T06:22:28.401Z,3.50
2019-05-23T06:24:59.144Z,3.50
2019-05-23T06:27:30.406Z,2.77
2019-05-23T06:30:01.201Z,4.03
2019-05-23T06:32:32.597Z,3.50
2019-05-23T06:35:03.849Z,2.87
2019-05-23T06:37:34.754Z,2.92
2019-05-23T06:40:06.962Z,3.37
2019-05-23T06:42:37.869Z,3.60
2019-05-23T06:45:09.202Z,3.55
2019-05-23T06:47:40.516Z,2.87
2019-05-23T06:50:15.905Z,2.65
2019-05-23T06:52:46.542Z,2.35
2019-05-23T06:55:17.434Z,2.08
2019-05-23T06:57:48.242Z,1.60
2019-05-23T07:00:22.566Z,3.37
2019-05-23T07:02:53.327Z,2.67
2019-05-23T07:05:29.418Z,2.72
2019-05-23T07:08:00.337Z,3.95
2019-05-23T07:10:31.061Z,2.60
2019-05-23T07:13:01.955Z,2.67
2019-05-23T07:15:32.878Z,3.95
2019-05-23T07:18:03.733Z,2.35
2019-05-23T07:20:34.403Z,2.17
2019-05-23T07:23:05.179Z,2.05
2019-05-23T07:25:35.903Z,2.17
2019-05-23T07:28:07.182Z,3.50
2019-05-23T07:30:38.075Z,3.17
2019-05-23T07:33:09.407Z,5.20
2019-05-23T07:35:40.346Z,1.90
2019-05-23T07:38:11.631Z,2.35
2019-05-23T07:40:42.609Z,1.95
2019-05-23T07:43:14.319Z,2.45
2019-05-23T07:45:50.853Z,2.83
2019-05-23T07:48:21.456Z,2.12
2019-05-23T07:50:52.134Z,1.47
2019-05-23T07:53:33.126Z,1.42
2019-05-23T07:56:04.141Z,1.95
2019-05-23T07:58:35.136Z,1.98
2019-05-23T08:01:07.789Z,1.75
2019-05-23T08:03:39.912Z,2.35
2019-05-23T08:06:10.764Z,2.20
2019-05-23T08:08:41.378Z,1.50
2019-05-23T08:11:12.347Z,3.40
2019-05-23T08:13:43.428Z,1.55
2019-05-23T08:16:14.331Z,2.25
2019-05-23T08:18:45.022Z,1.70
2019-05-23T08:21:16.225Z,1.62
2019-05-23T08:23:47.101Z,2.33
2019-05-23T08:26:20.286Z,2.35
2019-05-23T08:29:12.790Z,2.33
2019-05-23T08:31:24.776Z,1.98
2019-05-23T08:33:55.821Z,2.65
2019-05-23T08:36:27.139Z,2.08
2019-05-23T08:38:58.186Z,2.40
2019-05-23T08:41:29.112Z,1.85
2019-05-23T08:44:00.143Z,2.40
2019-05-23T08:46:31.113Z,7.72
2019-05-23T08:49:02.096Z,1.57
2019-05-23T08:51:32.939Z,2.22
2019-05-23T08:54:03.925Z,2.60
2019-05-23T08:56:34.849Z,1.95
2019-05-23T08:59:06.615Z,1.60
2019-05-23T09:01:37.351Z,2.35
2019-05-23T09:04:09.390Z,3.60
2019-05-23T09:06:40.585Z,1.80
2019-05-23T09:09:28.313Z,1.47
2019-05-23T09:11:45.249Z,1.47
2019-05-23T09:14:16.259Z,1.40
2019-05-23T09:16:47.576Z,1.70
2019-05-23T09:19:18.460Z,1.50
2019-05-23T09:21:49.382Z,1.60
2019-05-23T09:24:20.249Z,1.50
2019-05-23T09:26:51.500Z,2.17
2019-05-23T09:29:22.683Z,1.80
2019-05-23T09:31:53.639Z,1.50
2019-05-23T09:34:24.744Z,1.35
2019-05-23T09:36:55.595Z,1.32
2019-05-23T09:39:26.635Z,1.37
2019-05-23T09:41:57.212Z,1.55
2019-05-23T09:44:28.019Z,1.30
2019-05-23T09:46:58.974Z,1.82
2019-05-23T09:49:29.909Z,1.55
2019-05-23T09:52:01.502Z,2.15
2019-05-23T09:54:32.981Z,1.50
2019-05-23T09:57:05.679Z,1.50
2019-05-23T09:59:36.648Z,1.45
2019-05-23T10:02:07.976Z,1.90
2019-05-23T10:04:39.253Z,1.92
2019-05-23T10:07:10.402Z,1.72
2019-05-23T10:09:41.078Z,1.50
2019-05-23T10:12:12.055Z,1.60
2019-05-23T10:14:43.287Z,1.75
2019-05-23T10:17:14.209Z,1.60
2019-05-23T10:19:45.078Z,1.75
2019-05-23T10:22:16.792Z,1.45
2019-05-23T10:24:47.711Z,1.52
2019-05-23T10:27:18.922Z,1.30
2019-05-23T10:29:50.179Z,1.82
2019-05-23T10:32:21.681Z,1.40
2019-05-23T10:34:52.619Z,1.55
2019-05-23T10:37:25.081Z,1.32
2019-05-23T10:39:56.548Z,1.30
2019-05-23T10:42:28.174Z,1.50
2019-05-23T10:44:59.201Z,1.25
2019-05-23T10:47:30.690Z,1.30
2019-05-23T10:50:07.315Z,1.40
2019-05-23T10:52:34.464Z,1.30
2019-05-23T10:55:05.476Z,1.25
2019-05-23T10:57:36.591Z,1.20
2019-05-23T11:00:07.617Z,1.40
2019-05-23T11:02:38.205Z,1.40
2019-05-23T11:05:13.368Z,1.55
2019-05-23T11:07:42.814Z,1.40
2019-05-23T11:10:15.114Z,1.45
2019-05-23T11:12:46.052Z,1.30
2019-05-23T11:15:16.897Z,1.40
2019-05-23T11:17:47.788Z,1.17
2019-05-23T11:20:18.763Z,1.37
2019-05-23T11:22:49.624Z,1.40
2019-05-23T11:25:20.750Z,1.50
2019-05-23T11:27:51.436Z,1.35
2019-05-23T11:30:32.378Z,1.40
2019-05-23T11:33:03.333Z,1.42
2019-05-23T11:35:34.589Z,1.37
2019-05-23T11:38:05.469Z,1.40
2019-05-23T11:40:36.490Z,1.40
2019-05-23T11:43:07.653Z,1.30
2019-05-23T11:45:46.370Z,1.15
2019-05-23T11:48:17.516Z,1.55
2019-05-23T11:50:48.409Z,1.10
2019-05-23T11:53:19.272Z,1.40
2019-05-23T11:55:54.270Z,1.30
2019-05-23T11:58:22.783Z,1.30
2019-05-23T12:01:48.714Z,1.40
2019-05-23T12:04:21.324Z,1.30
2019-05-23T12:07:04.203Z,1.12
2019-05-23T12:09:35.112Z,1.40
2019-05-23T12:12:06.080Z,1.30
2019-05-23T12:14:37.033Z,1.30
2019-05-23T12:17:08.159Z,1.77
2019-05-23T12:19:39.087Z,1.42
2019-05-23T12:22:10.083Z,1.60
2019-05-23T12:24:41.370Z,1.70
2019-05-23T12:27:12.699Z,1.37
2019-05-23T12:29:43.655Z,1.45
2019-05-23T12:32:14.774Z,1.75
2019-05-23T12:35:08.006Z,1.30
2019-05-23T12:37:20.592Z,1.62
2019-05-23T12:39:52.434Z,1.70
2019-05-23T12:42:23.639Z,1.10
2019-05-23T12:44:54.621Z,1.20
2019-05-23T12:47:48.645Z,1.30
2019-05-23T12:50:22.401Z,1.45
2019-05-23T12:52:53.335Z,1.47
2019-05-23T12:55:24.777Z,1.20
2019-05-23T12:57:55.601Z,1.12
2019-05-23T13:00:35.411Z,1.30
2019-05-23T13:03:07.309Z,2.27
2019-05-23T13:05:39.291Z,2.00
2019-05-23T13:08:10.437Z,6.65
2019-05-23T13:10:41.579Z,1.70
2019-05-23T13:13:12.686Z,5.05
2019-05-23T13:15:43.948Z,4.25
2019-05-23T13:18:15.138Z,5.72
2019-05-23T13:20:46.452Z,2.67
2019-05-23T13:23:21.071Z,6.15
2019-05-23T13:25:51.211Z,10.00
2019-05-23T13:28:23.085Z,9.33
2019-05-23T13:30:54.198Z,9.10
2019-05-23T13:33:28.000Z,5.60
2019-05-23T13:35:59.077Z,7.30
2019-05-23T13:38:30.146Z,6.87
2019-05-23T13:41:01.068Z,6.30
2019-05-23T13:43:37.106Z,6.80
2019-05-23T13:46:08.352Z,8.13
2019-05-23T13:48:42.750Z,8.03
2019-05-23T13:51:13.823Z,6.70
2019-05-23T13:53:45.329Z,11.25
2019-05-23T13:56:17.671Z,5.97
2019-05-23T13:58:48.644Z,5.33
2019-05-23T14:01:19.927Z,5.62
2019-05-23T14:03:50.996Z,7.65
2019-05-23T14:06:22.452Z,7.60
2019-05-23T14:08:54.586Z,6.30
2019-05-23T14:11:25.616Z,4.10
2019-05-23T14:14:01.000Z,5.92
2019-05-23T14:16:31.806Z,3.98
2019-05-23T14:19:03.128Z,7.17
2019-05-23T14:21:36.306Z,4.95
2019-05-23T14:24:07.235Z,6.67
2019-05-23T14:26:45.588Z,4.40
2019-05-23T14:29:16.554Z,5.78
2019-05-23T14:31:55.492Z,3.42
2019-05-23T14:34:26.582Z,4.67
2019-05-23T14:37:15.359Z,5.20
2019-05-23T14:39:53.964Z,3.83
2019-05-23T14:42:59.452Z,4.90
2019-05-23T14:45:54.735Z,4.40
2019-05-23T14:49:00.495Z,4.80
2019-05-23T14:51:38.990Z,6.53
2019-05-23T14:54:14.960Z,4.92
2019-05-23T14:56:46.120Z,6.05
2019-05-23T14:59:17.016Z,6.50
2019-05-23T15:01:48.068Z,7.55
2019-05-23T15:04:18.968Z,4.87
2019-05-23T15:06:49.820Z,4.20
2019-05-23T15:09:21.597Z,6.15
2019-05-23T15:11:52.632Z,5.78
2019-05-23T15:14:23.424Z,4.40
2019-05-23T15:16:54.421Z,4.05
2019-05-23T15:19:39.968Z,4.90
2019-05-23T15:21:57.603Z,4.28
2019-05-23T15:24:29.085Z,5.72
2019-05-23T15:27:00.101Z,2.58
2019-05-23T15:29:30.837Z,3.50
2019-05-23T15:32:03.128Z,3.85
2019-05-23T15:34:35.211Z,2.77
2019-05-23T15:37:06.736Z,4.35
2019-05-23T15:39:37.519Z,2.72
2019-05-23T15:42:08.366Z,5.25
2019-05-23T15:44:39.353Z,3.70
2019-05-23T15:47:10.371Z,3.27
2019-05-23T15:49:43.270Z,2.20
2019-05-23T15:52:32.093Z,2.85
2019-05-23T15:55:12.535Z,2.87
2019-05-23T15:58:14.236Z,5.00
2019-05-23T16:01:02.127Z,5.70
2019-05-23T16:03:38.574Z,4.78
2019-05-23T16:06:11.284Z,4.60
2019-05-23T16:08:42.147Z,5.92
2019-05-23T16:11:17.137Z,4.12
2019-05-23T16:13:46.034Z,4.08
2019-05-23T16:16:17.155Z,2.92
2019-05-23T16:18:48.648Z,5.53
2019-05-23T16:21:22.085Z,4.33
2019-05-23T16:23:53.867Z,2.90
2019-05-23T16:26:24.761Z,3.60
2019-05-23T16:28:55.648Z,2.60
2019-05-23T16:31:26.938Z,2.35
2019-05-23T16:33:58.001Z,3.20
2019-05-23T16:36:29.239Z,2.52
2019-05-23T16:39:00.298Z,2.83
2019-05-23T16:41:31.170Z,3.87
2019-05-23T16:44:02.102Z,3.08
2019-05-23T16:46:33.488Z,2.25
2019-05-23T16:49:04.623Z,3.95
2019-05-23T16:51:35.389Z,2.95
2019-05-23T16:54:06.333Z,3.00
2019-05-23T16:56:47.627Z,4.10
2019-05-23T16:59:26.917Z,3.12
2019-05-23T17:02:06.973Z,3.17
2019-05-23T17:05:08.716Z,2.83
2019-05-23T17:07:55.031Z,3.20
2019-05-23T17:11:03.054Z,2.17
2019-05-23T17:13:40.433Z,6.33
2019-05-23T17:16:18.987Z,2.02
2019-05-23T17:19:26.753Z,3.50
2019-05-23T17:22:07.516Z,4.80
2019-05-23T17:24:55.362Z,3.37
2019-05-23T17:27:38.351Z,11.43
2019-05-23T17:30:17.915Z,6.75
2019-05-23T17:32:49.150Z,4.25
2019-05-23T17:35:19.858Z,6.70
2019-05-23T17:37:50.761Z,6.05
2019-05-23T17:40:24.676Z,9.35
2019-05-23T17:42:54.665Z,5.70
2019-05-23T17:45:25.929Z,11.33
2019-05-23T17:47:58.947Z,10.23
2019-05-23T17:50:30.237Z,9.30
2019-05-23T17:53:01.000Z,6.55
2019-05-23T17:55:32.646Z,10.40
2019-05-23T17:58:03.600Z,7.10
2019-05-23T18:00:42.222Z,8.28
2019-05-23T18:03:13.455Z,5.35
2019-05-23T18:05:44.799Z,5.37
2019-05-23T18:08:16.081Z,6.47
2019-05-23T18:10:47.046Z,5.60
2019-05-23T18:13:18.190Z,4.97
2019-05-23T18:15:49.245Z,7.35
2019-05-23T18:18:20.767Z,5.70
2019-05-23T18:20:51.869Z,5.62
2019-05-23T18:23:22.869Z,7.72
2019-05-23T18:25:54.067Z,4.67
2019-05-23T18:28:25.198Z,5.05
2019-05-23T18:31:01.527Z,6.75
2019-05-23T18:33:33.671Z,4.00
2019-05-23T18:36:05.014Z,3.60
2019-05-23T18:38:36.103Z,8.93
2019-05-23T18:41:09.112Z,3.87
2019-05-23T18:43:40.273Z,2.65
2019-05-23T18:46:16.828Z,6.20
2019-05-23T18:48:47.681Z,3.95
2019-05-23T18:51:18.713Z,5.22
2019-05-23T18:53:49.575Z,3.72
2019-05-23T18:56:20.615Z,3.77
2019-05-23T18:58:51.674Z,3.20
2019-05-23T19:01:25.050Z,4.25
2019-05-23T19:03:56.569Z,3.35
2019-05-23T19:06:28.818Z,4.70
2019-05-23T19:09:00.508Z,4.28
2019-05-23T19:11:31.563Z,5.40
2019-05-23T19:14:02.572Z,5.33
2019-05-23T19:16:33.852Z,5.25
2019-05-23T19:19:05.676Z,3.87
2019-05-23T19:21:37.780Z,6.30
2019-05-23T19:24:08.761Z,5.28
2019-05-23T19:26:39.453Z,7.05
2019-05-23T19:29:11.208Z,6.80
2019-05-23T19:31:42.066Z,7.08
2019-05-23T19:34:12.967Z,6.50
2019-05-23T19:36:44.018Z,5.72
2019-05-23T19:39:15.185Z,2.60
2019-05-23T19:41:46.101Z,6.53
2019-05-23T19:44:17.110Z,5.22
2019-05-23T19:46:48.147Z,5.03
2019-05-23T19:49:19.340Z,3.85
2019-05-23T19:51:50.495Z,5.15
2019-05-23T19:54:23.631Z,3.92
2019-05-23T19:56:54.594Z,5.65
2019-05-23T19:59:25.476Z,5.12
2019-05-23T20:02:14.454Z,5.05
2019-05-23T20:04:53.393Z,10.80
2019-05-23T20:07:24.620Z,4.72
2019-05-23T20:09:57.438Z,6.85
2019-05-23T20:12:29.013Z,6.33
2019-05-23T20:14:59.965Z,7.42
2019-05-23T20:17:30.876Z,9.03
2019-05-23T20:20:01.901Z,6.78
2019-05-23T20:22:33.093Z,11.35
2019-05-23T20:25:04.051Z,11.28
2019-05-23T20:27:35.075Z,13.20
2019-05-23T20:30:07.878Z,9.88
2019-05-23T20:32:38.954Z,10.48
2019-05-23T20:35:10.006Z,9.28
2019-05-23T20:37:41.437Z,10.30
2019-05-23T20:40:12.468Z,11.30
2019-05-23T20:42:43.418Z,7.45
2019-05-23T20:45:14.245Z,11.28
2019-05-23T20:47:45.060Z,8.63
2019-05-23T20:50:16.035Z,10.53
2019-05-23T20:52:47.280Z,6.72
2019-05-23T20:55:18.146Z,11.75
2019-05-23T20:57:49.259Z,6.25
2019-05-23T21:00:26.418Z,9.48
2019-05-23T21:02:57.542Z,6.20
2019-05-23T21:05:28.642Z,6.78
2019-05-23T21:07:59.455Z,6.53
2019-05-23T21:10:49.159Z,6.10
2019-05-23T21:13:20.212Z,7.05
2019-05-23T21:15:51.057Z,6.40
2019-05-23T21:18:22.052Z,5.20
2019-05-23T21:20:53.043Z,5.25
2019-05-23T21:23:24.055Z,7.80
2019-05-23T21:25:58.998Z,5.35
2019-05-23T21:28:30.195Z,5.80
2019-05-23T21:31:01.181Z,6.47
2019-05-23T21:33:32.015Z,6.12
2019-05-23T21:36:03.117Z,5.05
2019-05-23T21:38:34.194Z,8.00
2019-05-23T21:41:05.243Z,5.08
2019-05-23T21:43:36.240Z,6.25
2019-05-23T21:46:07.245Z,5.47
2019-05-23T21:48:38.367Z,3.33
2019-05-23T21:51:09.382Z,5.00
2019-05-23T21:53:40.527Z,4.15
2019-05-23T21:56:11.530Z,5.08
2019-05-23T21:58:42.479Z,5.80
2019-05-23T22:01:59.818Z,4.42
2019-05-23T22:04:47.903Z,5.03
2019-05-23T22:07:18.598Z,3.08
2019-05-23T22:09:49.501Z,7.33
2019-05-23T22:12:20.240Z,4.75
2019-05-23T22:14:51.356Z,3.33
2019-05-23T22:17:24.100Z,8.25
2019-05-23T22:19:55.225Z,3.77
2019-05-23T22:22:26.089Z,3.40
2019-05-23T22:24:56.981Z,3.20
2019-05-23T22:27:27.980Z,5.35
2019-05-23T22:29:58.796Z,3.80
2019-05-23T22:32:31.541Z,4.00
2019-05-23T22:35:05.426Z,3.10
2019-05-23T22:37:35.923Z,3.90
2019-05-23T22:40:07.462Z,4.83
2019-05-23T22:42:38.853Z,4.28
2019-05-23T22:45:15.202Z,4.05
2019-05-23T22:47:46.767Z,5.50
2019-05-23T22:50:17.972Z,3.10
2019-05-23T22:52:49.060Z,3.27
2019-05-23T22:55:20.256Z,4.17
2019-05-23T22:57:51.277Z,4.37
2019-05-23T23:00:30.471Z,3.02
2019-05-23T23:03:01.544Z,4.00
2019-05-23T23:05:32.940Z,4.15
2019-05-23T23:08:03.839Z,3.95
2019-05-23T23:10:34.743Z,3.42
2019-05-23T23:13:05.819Z,4.58
2019-05-23T23:15:37.304Z,3.30
2019-05-23T23:18:08.304Z,2.92
2019-05-23T23:20:39.426Z,3.27
2019-05-23T23:23:10.322Z,4.25
2019-05-23T23:25:41.189Z,3.30
2019-05-23T23:28:12.328Z,4.28
2019-05-23T23:30:45.141Z,3.90
2019-05-23T23:33:16.141Z,3.90
2019-05-23T23:35:47.274Z,3.75
2019-05-23T23:38:18.471Z,3.20
2019-05-23T23:40:49.373Z,3.30
2019-05-23T23:43:20.293Z,3.20
2019-05-23T23:46:09.068Z,2.90
2019-05-23T23:48:57.461Z,3.35
2019-05-23T23:51:45.904Z,3.67
2019-05-23T23:54:34.205Z,3.33
2019-05-23T23:57:22.244Z,3.20
2019-05-23T23:59:51.878Z,3.52
